sensor_id;sensor_type;location;lat;lon;timestamp;pressure;altitude;pressure_sealevel;temperature;humidity
66430;BME280;53242;51.694;10.006;2023-09-19T00:00:22;98707.50;;;16.33;85.10
66430;BME280;53242;51.694;10.006;2023-09-19T00:03:05;98708.75;;;16.52;84.31
66430;BME280;53242;51.694;10.006;2023-09-19T00:05:28;98709.28;;;16.49;83.79
66430;BME280;53242;51.694;10.006;2023-09-19T00:07:53;98714.16;;;16.63;83.20
66430;BME280;53242;51.694;10.006;2023-09-19T00:10:25;98711.78;;;16.61;83.31
66430;BME280;53242;51.694;10.006;2023-09-19T00:12:48;98713.38;;;16.62;83.14
66430;BME280;53242;51.694;10.006;2023-09-19T00:15:11;98713.34;;;16.57;83.39
66430;BME280;53242;51.694;10.006;2023-09-19T00:17:34;98718.16;;;16.60;83.40
66430;BME280;53242;51.694;10.006;2023-09-19T00:19:57;98719.38;;;16.47;84.02
66430;BME280;53242;51.694;10.006;2023-09-19T00:22:19;98725.00;;;16.51;83.87
66430;BME280;53242;51.694;10.006;2023-09-19T00:24:42;98724.47;;;16.49;84.26
66430;BME280;53242;51.694;10.006;2023-09-19T00:27:04;98722.03;;;16.47;84.12
66430;BME280;53242;51.694;10.006;2023-09-19T00:29:27;98731.97;;;16.57;83.96
66430;BME280;53242;51.694;10.006;2023-09-19T00:31:51;98730.84;;;16.48;84.55
66430;BME280;53242;51.694;10.006;2023-09-19T00:34:13;98733.28;;;16.54;84.24
66430;BME280;53242;51.694;10.006;2023-09-19T00:36:37;98738.38;;;16.56;84.12
66430;BME280;53242;51.694;10.006;2023-09-19T00:39:02;98746.00;;;16.47;85.22
66430;BME280;53242;51.694;10.006;2023-09-19T00:41:27;98749.13;;;16.39;85.72
66430;BME280;53242;51.694;10.006;2023-09-19T00:43:52;98748.19;;;16.50;85.44
66430;BME280;53242;51.694;10.006;2023-09-19T00:46:18;98758.16;;;16.65;84.98
66430;BME280;53242;51.694;10.006;2023-09-19T00:48:42;98758.88;;;16.55;85.40
66430;BME280;53242;51.694;10.006;2023-09-19T00:51:05;98758.19;;;16.70;84.82
66430;BME280;53242;51.694;10.006;2023-09-19T00:53:30;98755.84;;;16.74;84.81
66430;BME280;53242;51.694;10.006;2023-09-19T00:55:53;98759.22;;;16.64;85.34
66430;BME280;53242;51.694;10.006;2023-09-19T00:58:16;98759.75;;;16.66;85.19
66430;BME280;53242;51.694;10.006;2023-09-19T01:00:40;98757.16;;;16.71;84.95
66430;BME280;53242;51.694;10.006;2023-09-19T01:03:03;98749.69;;;16.68;84.68
66430;BME280;53242;51.694;10.006;2023-09-19T01:05:25;98761.91;;;16.64;85.46
66430;BME280;53242;51.694;10.006;2023-09-19T01:07:48;98765.91;;;16.67;85.02
66430;BME280;53242;51.694;10.006;2023-09-19T01:10:13;98773.66;;;16.68;85.19
66430;BME280;53242;51.694;10.006;2023-09-19T01:20:39;98757.31;;;16.59;85.81
66430;BME280;53242;51.694;10.006;2023-09-19T01:23:11;98764.47;;;16.54;85.93
66430;BME280;53242;51.694;10.006;2023-09-19T01:28:32;98779.03;;;16.73;85.19
66430;BME280;53242;51.694;10.006;2023-09-19T01:30:59;98787.66;;;16.86;83.51
66430;BME280;53242;51.694;10.006;2023-09-19T01:33:25;98784.88;;;16.75;84.25
66430;BME280;53242;51.694;10.006;2023-09-19T01:35:48;98784.78;;;16.65;84.77
66430;BME280;53242;51.694;10.006;2023-09-19T01:38:11;98784.41;;;16.51;85.55
66430;BME280;53242;51.694;10.006;2023-09-19T01:40:42;98777.22;;;16.52;85.79
66430;BME280;53242;51.694;10.006;2023-09-19T01:43:20;98781.13;;;16.44;85.78
66430;BME280;53242;51.694;10.006;2023-09-19T01:48:27;98786.34;;;16.34;87.25
66430;BME280;53242;51.694;10.006;2023-09-19T01:51:01;98791.06;;;16.26;87.18
66430;BME280;53242;51.694;10.006;2023-09-19T01:53:28;98788.34;;;16.21;87.12
66430;BME280;53242;51.694;10.006;2023-09-19T01:55:53;98795.91;;;16.30;86.87
66430;BME280;53242;51.694;10.006;2023-09-19T01:58:21;98802.84;;;16.31;86.77
66430;BME280;53242;51.694;10.006;2023-09-19T02:00:46;98793.75;;;16.54;85.62
66430;BME280;53242;51.694;10.006;2023-09-19T02:03:11;98800.72;;;16.33;86.60
66430;BME280;53242;51.694;10.006;2023-09-19T02:05:34;98802.31;;;16.34;86.49
66430;BME280;53242;51.694;10.006;2023-09-19T02:07:57;98805.72;;;16.29;87.06
66430;BME280;53242;51.694;10.006;2023-09-19T02:10:20;98810.94;;;16.19;87.59
66430;BME280;53242;51.694;10.006;2023-09-19T02:12:43;98810.44;;;16.22;87.35
66430;BME280;53242;51.694;10.006;2023-09-19T02:15:06;98804.09;;;16.23;86.91
66430;BME280;53242;51.694;10.006;2023-09-19T02:17:29;98819.75;;;16.19;87.49
66430;BME280;53242;51.694;10.006;2023-09-19T02:19:54;98815.91;;;16.32;86.87
66430;BME280;53242;51.694;10.006;2023-09-19T02:22:18;98821.53;;;16.36;86.52
66430;BME280;53242;51.694;10.006;2023-09-19T02:24:40;98817.44;;;16.28;86.63
66430;BME280;53242;51.694;10.006;2023-09-19T02:27:03;98828.16;;;16.33;86.45
66430;BME280;53242;51.694;10.006;2023-09-19T02:29:27;98826.22;;;16.06;87.77
66430;BME280;53242;51.694;10.006;2023-09-19T02:31:51;98822.47;;;16.02;88.25
66430;BME280;53242;51.694;10.006;2023-09-19T02:34:13;98830.06;;;15.93;88.79
66430;BME280;53242;51.694;10.006;2023-09-19T02:36:39;98827.72;;;15.97;88.36
66430;BME280;53242;51.694;10.006;2023-09-19T02:39:02;98829.56;;;15.97;88.54
66430;BME280;53242;51.694;10.006;2023-09-19T02:41:25;98831.19;;;15.98;87.96
66430;BME280;53242;51.694;10.006;2023-09-19T02:43:47;98828.91;;;16.06;87.43
66430;BME280;53242;51.694;10.006;2023-09-19T02:46:10;98832.84;;;16.04;87.44
66430;BME280;53242;51.694;10.006;2023-09-19T02:48:33;98841.81;;;15.98;87.44
66430;BME280;53242;51.694;10.006;2023-09-19T02:50:58;98843.13;;;15.95;87.91
66430;BME280;53242;51.694;10.006;2023-09-19T02:53:20;98843.84;;;15.90;87.88
66430;BME280;53242;51.694;10.006;2023-09-19T02:55:43;98846.75;;;15.89;87.79
66430;BME280;53242;51.694;10.006;2023-09-19T02:58:06;98850.31;;;15.94;86.96
66430;BME280;53242;51.694;10.006;2023-09-19T03:00:30;98855.34;;;15.79;87.32
66430;BME280;53242;51.694;10.006;2023-09-19T03:02:55;98861.16;;;15.93;86.94
66430;BME280;53242;51.694;10.006;2023-09-19T03:05:18;98860.47;;;15.81;86.99
66430;BME280;53242;51.694;10.006;2023-09-19T03:07:41;98864.72;;;15.82;86.62
66430;BME280;53242;51.694;10.006;2023-09-19T03:10:06;98867.16;;;15.83;86.44
66430;BME280;53242;51.694;10.006;2023-09-19T03:12:29;98864.16;;;15.79;86.00
66430;BME280;53242;51.694;10.006;2023-09-19T03:14:53;98873.97;;;15.79;85.40
66430;BME280;53242;51.694;10.006;2023-09-19T03:17:15;98874.31;;;15.66;85.51
66430;BME280;53242;51.694;10.006;2023-09-19T03:19:38;98887.97;;;15.52;85.75
66430;BME280;53242;51.694;10.006;2023-09-19T03:22:01;98879.66;;;15.66;83.83
66430;BME280;53242;51.694;10.006;2023-09-19T03:24:26;98881.09;;;15.73;82.71
66430;BME280;53242;51.694;10.006;2023-09-19T03:26:49;98879.06;;;15.63;82.39
66430;BME280;53242;51.694;10.006;2023-09-19T03:29:13;98889.56;;;15.70;81.54
66430;BME280;53242;51.694;10.006;2023-09-19T03:31:37;98886.41;;;15.73;81.13
66430;BME280;53242;51.694;10.006;2023-09-19T03:34:00;98883.34;;;15.82;80.47
66430;BME280;53242;51.694;10.006;2023-09-19T03:36:22;98877.78;;;15.66;80.79
66430;BME280;53242;51.694;10.006;2023-09-19T03:38:45;98876.09;;;15.77;80.41
66430;BME280;53242;51.694;10.006;2023-09-19T03:41:07;98890.88;;;15.85;80.20
66430;BME280;53242;51.694;10.006;2023-09-19T03:43:32;98883.47;;;15.87;80.20
66430;BME280;53242;51.694;10.006;2023-09-19T03:45:55;98883.56;;;15.80;80.79
66430;BME280;53242;51.694;10.006;2023-09-19T03:48:18;98886.19;;;15.92;80.89
66430;BME280;53242;51.694;10.006;2023-09-19T03:50:42;98885.78;;;15.83;81.48
66430;BME280;53242;51.694;10.006;2023-09-19T03:53:06;98881.66;;;15.58;82.04
66430;BME280;53242;51.694;10.006;2023-09-19T03:55:29;98868.44;;;15.63;81.76
66430;BME280;53242;51.694;10.006;2023-09-19T03:57:52;98876.81;;;15.72;81.00
66430;BME280;53242;51.694;10.006;2023-09-19T04:00:15;98885.28;;;15.69;80.68
66430;BME280;53242;51.694;10.006;2023-09-19T04:02:40;98879.72;;;15.71;80.50
66430;BME280;53242;51.694;10.006;2023-09-19T04:05:03;98879.97;;;15.86;79.80
66430;BME280;53242;51.694;10.006;2023-09-19T04:07:25;98888.28;;;15.73;80.04
66430;BME280;53242;51.694;10.006;2023-09-19T04:09:51;98881.59;;;15.70;79.73
66430;BME280;53242;51.694;10.006;2023-09-19T04:12:15;98890.28;;;15.83;79.48
66430;BME280;53242;51.694;10.006;2023-09-19T04:14:39;98906.50;;;15.64;79.60
66430;BME280;53242;51.694;10.006;2023-09-19T04:17:01;98919.78;;;15.64;79.37
66430;BME280;53242;51.694;10.006;2023-09-19T04:19:24;98919.28;;;15.67;78.83
66430;BME280;53242;51.694;10.006;2023-09-19T04:21:47;98920.50;;;15.42;78.91
66430;BME280;53242;51.694;10.006;2023-09-19T04:24:09;98925.72;;;15.37;78.75
66430;BME280;53242;51.694;10.006;2023-09-19T04:26:31;98930.25;;;15.37;78.47
66430;BME280;53242;51.694;10.006;2023-09-19T04:28:54;98930.63;;;15.28;78.64
66430;BME280;53242;51.694;10.006;2023-09-19T04:31:18;98932.19;;;15.41;78.08
66430;BME280;53242;51.694;10.006;2023-09-19T04:33:41;98929.22;;;15.55;77.55
66430;BME280;53242;51.694;10.006;2023-09-19T04:36:05;98937.66;;;15.52;77.89
66430;BME280;53242;51.694;10.006;2023-09-19T04:38:29;98938.16;;;15.49;78.18
66430;BME280;53242;51.694;10.006;2023-09-19T04:40:57;98940.16;;;15.41;78.96
66430;BME280;53242;51.694;10.006;2023-09-19T04:43:20;98940.31;;;15.35;79.17
66430;BME280;53242;51.694;10.006;2023-09-19T04:45:43;98937.06;;;15.33;79.28
66430;BME280;53242;51.694;10.006;2023-09-19T04:48:05;98933.34;;;15.17;79.16
66430;BME280;53242;51.694;10.006;2023-09-19T04:50:31;98928.31;;;15.32;78.40
66430;BME280;53242;51.694;10.006;2023-09-19T04:52:53;98924.59;;;15.33;78.48
66430;BME280;53242;51.694;10.006;2023-09-19T04:55:17;98933.94;;;15.36;78.23
66430;BME280;53242;51.694;10.006;2023-09-19T04:57:40;98935.88;;;15.40;78.31
66430;BME280;53242;51.694;10.006;2023-09-19T05:00:03;98931.06;;;15.37;78.36
66430;BME280;53242;51.694;10.006;2023-09-19T05:02:34;98933.28;;;15.28;78.65
66430;BME280;53242;51.694;10.006;2023-09-19T05:04:57;98932.16;;;15.24;78.95
66430;BME280;53242;51.694;10.006;2023-09-19T05:07:22;98939.59;;;15.39;78.53
66430;BME280;53242;51.694;10.006;2023-09-19T05:09:46;98941.84;;;15.31;78.59
66430;BME280;53242;51.694;10.006;2023-09-19T05:12:08;98946.72;;;15.22;79.15
66430;BME280;53242;51.694;10.006;2023-09-19T05:14:32;98943.97;;;15.17;79.27
66430;BME280;53242;51.694;10.006;2023-09-19T05:16:55;98939.97;;;15.31;78.61
66430;BME280;53242;51.694;10.006;2023-09-19T05:19:17;98945.28;;;15.31;78.98
66430;BME280;53242;51.694;10.006;2023-09-19T05:21:40;98945.47;;;15.41;78.16
66430;BME280;53242;51.694;10.006;2023-09-19T05:24:02;98948.47;;;15.45;78.17
66430;BME280;53242;51.694;10.006;2023-09-19T05:26:25;98947.84;;;15.55;77.76
66430;BME280;53242;51.694;10.006;2023-09-19T05:28:47;98954.91;;;15.49;78.37
66430;BME280;53242;51.694;10.006;2023-09-19T05:31:12;98953.25;;;15.60;78.24
66430;BME280;53242;51.694;10.006;2023-09-19T05:33:35;98959.81;;;15.40;78.69
66430;BME280;53242;51.694;10.006;2023-09-19T05:35:57;98972.81;;;15.25;79.44
66430;BME280;53242;51.694;10.006;2023-09-19T05:38:19;98979.25;;;15.41;78.75
66430;BME280;53242;51.694;10.006;2023-09-19T05:40:42;98978.91;;;15.37;78.67
66430;BME280;53242;51.694;10.006;2023-09-19T05:43:05;98983.75;;;15.40;78.73
66430;BME280;53242;51.694;10.006;2023-09-19T05:45:28;98979.16;;;15.36;79.17
66430;BME280;53242;51.694;10.006;2023-09-19T05:47:51;98987.88;;;15.48;78.97
66430;BME280;53242;51.694;10.006;2023-09-19T05:50:17;98997.41;;;15.61;78.43
66430;BME280;53242;51.694;10.006;2023-09-19T05:52:40;99000.56;;;15.29;79.56
66430;BME280;53242;51.694;10.006;2023-09-19T05:55:05;99010.22;;;15.47;79.09
66430;BME280;53242;51.694;10.006;2023-09-19T05:57:29;99016.03;;;15.32;79.83
66430;BME280;53242;51.694;10.006;2023-09-19T05:59:52;99016.72;;;15.39;79.63
66430;BME280;53242;51.694;10.006;2023-09-19T06:02:15;99018.66;;;15.44;79.08
66430;BME280;53242;51.694;10.006;2023-09-19T06:04:38;99016.94;;;15.38;79.63
66430;BME280;53242;51.694;10.006;2023-09-19T06:07:03;99027.19;;;15.17;80.19
66430;BME280;53242;51.694;10.006;2023-09-19T06:09:25;99030.81;;;15.40;79.73
66430;BME280;53242;51.694;10.006;2023-09-19T06:11:50;99032.09;;;15.37;80.01
66430;BME280;53242;51.694;10.006;2023-09-19T06:14:13;99043.00;;;15.24;80.53
66430;BME280;53242;51.694;10.006;2023-09-19T06:16:36;99042.47;;;15.39;79.90
66430;BME280;53242;51.694;10.006;2023-09-19T06:19:00;99047.00;;;15.38;80.04
66430;BME280;53242;51.694;10.006;2023-09-19T06:21:22;99045.88;;;15.34;79.79
66430;BME280;53242;51.694;10.006;2023-09-19T06:23:46;99041.59;;;15.33;80.08
66430;BME280;53242;51.694;10.006;2023-09-19T06:26:09;99056.69;;;15.44;79.31
66430;BME280;53242;51.694;10.006;2023-09-19T06:28:31;99055.53;;;15.40;79.83
66430;BME280;53242;51.694;10.006;2023-09-19T06:30:55;99060.59;;;15.54;79.03
66430;BME280;53242;51.694;10.006;2023-09-19T06:33:19;99052.94;;;15.57;78.69
66430;BME280;53242;51.694;10.006;2023-09-19T06:35:43;99054.97;;;15.38;78.09
66430;BME280;53242;51.694;10.006;2023-09-19T06:38:07;99053.56;;;15.48;78.44
66430;BME280;53242;51.694;10.006;2023-09-19T06:40:29;99062.13;;;15.38;78.94
66430;BME280;53242;51.694;10.006;2023-09-19T06:42:53;99069.69;;;15.58;78.44
66430;BME280;53242;51.694;10.006;2023-09-19T06:45:16;99070.38;;;15.65;78.45
66430;BME280;53242;51.694;10.006;2023-09-19T06:47:41;99082.06;;;15.64;78.63
66430;BME280;53242;51.694;10.006;2023-09-19T06:50:05;99089.50;;;15.50;78.30
66430;BME280;53242;51.694;10.006;2023-09-19T06:52:31;99096.59;;;15.44;77.83
66430;BME280;53242;51.694;10.006;2023-09-19T06:54:55;99095.66;;;15.39;77.31
66430;BME280;53242;51.694;10.006;2023-09-19T06:57:17;99085.31;;;15.54;75.10
66430;BME280;53242;51.694;10.006;2023-09-19T06:59:39;99087.53;;;15.45;74.14
66430;BME280;53242;51.694;10.006;2023-09-19T07:02:02;99089.88;;;15.42;73.40
66430;BME280;53242;51.694;10.006;2023-09-19T07:04:25;99094.69;;;15.57;73.12
66430;BME280;53242;51.694;10.006;2023-09-19T07:06:50;99091.56;;;15.60;72.28
66430;BME280;53242;51.694;10.006;2023-09-19T07:09:13;99088.91;;;15.60;72.24
66430;BME280;53242;51.694;10.006;2023-09-19T07:11:35;99088.56;;;15.56;72.44
66430;BME280;53242;51.694;10.006;2023-09-19T07:13:59;99091.31;;;15.61;72.63
66430;BME280;53242;51.694;10.006;2023-09-19T07:16:21;99090.69;;;15.83;72.50
66430;BME280;53242;51.694;10.006;2023-09-19T07:18:51;99097.25;;;15.81;72.71
66430;BME280;53242;51.694;10.006;2023-09-19T07:21:13;99090.88;;;15.93;72.50
66430;BME280;53242;51.694;10.006;2023-09-19T07:23:37;99084.72;;;15.93;73.90
66430;BME280;53242;51.694;10.006;2023-09-19T07:26:03;99096.44;;;15.92;74.71
66430;BME280;53242;51.694;10.006;2023-09-19T07:28:27;99098.19;;;16.03;74.37
66430;BME280;53242;51.694;10.006;2023-09-19T07:30:50;99099.72;;;15.99;73.93
66430;BME280;53242;51.694;10.006;2023-09-19T07:33:12;99094.03;;;16.07;72.57
66430;BME280;53242;51.694;10.006;2023-09-19T07:35:35;99098.63;;;16.12;71.22
66430;BME280;53242;51.694;10.006;2023-09-19T07:37:57;99095.25;;;16.34;70.43
66430;BME280;53242;51.694;10.006;2023-09-19T07:40:20;99101.78;;;16.43;70.21
66430;BME280;53242;51.694;10.006;2023-09-19T07:42:43;99097.13;;;16.33;69.54
66430;BME280;53242;51.694;10.006;2023-09-19T07:45:07;99107.84;;;16.38;67.87
66430;BME280;53242;51.694;10.006;2023-09-19T07:47:30;99102.81;;;16.25;68.22
66430;BME280;53242;51.694;10.006;2023-09-19T07:49:54;99112.09;;;16.22;67.04
66430;BME280;53242;51.694;10.006;2023-09-19T07:52:17;99104.59;;;16.36;66.18
66430;BME280;53242;51.694;10.006;2023-09-19T07:54:41;99105.56;;;16.47;65.65
66430;BME280;53242;51.694;10.006;2023-09-19T07:57:06;99104.53;;;16.48;64.97
66430;BME280;53242;51.694;10.006;2023-09-19T07:59:28;99107.69;;;16.45;65.17
66430;BME280;53242;51.694;10.006;2023-09-19T08:01:51;99103.38;;;16.61;65.55
66430;BME280;53242;51.694;10.006;2023-09-19T08:04:14;99107.34;;;16.58;65.40
66430;BME280;53242;51.694;10.006;2023-09-19T08:06:36;99112.56;;;16.70;65.29
66430;BME280;53242;51.694;10.006;2023-09-19T08:09:01;99116.38;;;16.74;65.43
66430;BME280;53242;51.694;10.006;2023-09-19T08:11:29;99115.78;;;16.89;65.10
66430;BME280;53242;51.694;10.006;2023-09-19T08:13:53;99117.59;;;16.84;65.12
66430;BME280;53242;51.694;10.006;2023-09-19T08:16:16;99120.72;;;16.81;65.64
66430;BME280;53242;51.694;10.006;2023-09-19T08:18:40;99124.13;;;16.93;65.63
66430;BME280;53242;51.694;10.006;2023-09-19T08:21:03;99124.53;;;16.85;65.91
66430;BME280;53242;51.694;10.006;2023-09-19T08:23:25;99128.00;;;16.68;65.49
66430;BME280;53242;51.694;10.006;2023-09-19T08:25:48;99128.97;;;16.96;65.15
66430;BME280;53242;51.694;10.006;2023-09-19T08:28:10;99130.91;;;17.01;64.95
66430;BME280;53242;51.694;10.006;2023-09-19T08:30:34;99135.88;;;17.14;65.59
66430;BME280;53242;51.694;10.006;2023-09-19T08:32:57;99145.75;;;17.14;65.98
66430;BME280;53242;51.694;10.006;2023-09-19T08:35:20;99132.13;;;16.93;66.29
66430;BME280;53242;51.694;10.006;2023-09-19T08:37:43;99134.75;;;17.10;65.74
66430;BME280;53242;51.694;10.006;2023-09-19T08:40:08;99131.16;;;16.99;65.43
66430;BME280;53242;51.694;10.006;2023-09-19T08:42:31;99125.28;;;17.19;65.16
66430;BME280;53242;51.694;10.006;2023-09-19T08:44:55;99125.19;;;17.14;64.79
66430;BME280;53242;51.694;10.006;2023-09-19T08:47:26;99116.16;;;17.37;65.64
66430;BME280;53242;51.694;10.006;2023-09-19T08:50:12;99124.78;;;17.22;65.56
66430;BME280;53242;51.694;10.006;2023-09-19T08:52:41;99129.81;;;17.41;65.25
66430;BME280;53242;51.694;10.006;2023-09-19T08:55:06;99127.22;;;17.24;64.33
66430;BME280;53242;51.694;10.006;2023-09-19T08:57:33;99127.31;;;17.12;64.94
66430;BME280;53242;51.694;10.006;2023-09-19T08:59:57;99129.22;;;17.17;65.20
66430;BME280;53242;51.694;10.006;2023-09-19T09:02:21;99131.88;;;17.34;64.85
66430;BME280;53242;51.694;10.006;2023-09-19T09:04:46;99133.53;;;17.18;64.83
66430;BME280;53242;51.694;10.006;2023-09-19T09:07:13;99135.28;;;17.51;64.55
66430;BME280;53242;51.694;10.006;2023-09-19T09:09:36;99136.56;;;17.49;64.02
66430;BME280;53242;51.694;10.006;2023-09-19T09:11:59;99132.34;;;17.53;64.46
66430;BME280;53242;51.694;10.006;2023-09-19T09:14:22;99131.81;;;17.51;63.67
66430;BME280;53242;51.694;10.006;2023-09-19T09:16:45;99130.16;;;17.72;63.18
66430;BME280;53242;51.694;10.006;2023-09-19T09:19:08;99133.16;;;17.53;63.45
66430;BME280;53242;51.694;10.006;2023-09-19T09:21:30;99139.78;;;17.73;63.31
66430;BME280;53242;51.694;10.006;2023-09-19T09:23:57;99143.34;;;17.84;62.61
66430;BME280;53242;51.694;10.006;2023-09-19T09:29:01;99149.09;;;17.70;63.37
66430;BME280;53242;51.694;10.006;2023-09-19T09:31:24;99142.75;;;17.77;62.94
66430;BME280;53242;51.694;10.006;2023-09-19T09:33:55;99148.41;;;18.02;62.12
66430;BME280;53242;51.694;10.006;2023-09-19T09:36:34;99147.03;;;18.00;61.76
66430;BME280;53242;51.694;10.006;2023-09-19T09:38:56;99143.00;;;17.97;62.56
66430;BME280;53242;51.694;10.006;2023-09-19T09:41:19;99141.19;;;17.81;62.80
66430;BME280;53242;51.694;10.006;2023-09-19T09:43:50;99141.56;;;17.89;62.21
66430;BME280;53242;51.694;10.006;2023-09-19T09:46:16;99146.78;;;18.01;62.28
66430;BME280;53242;51.694;10.006;2023-09-19T09:48:45;99144.03;;;18.23;61.67
66430;BME280;53242;51.694;10.006;2023-09-19T09:51:15;99138.91;;;18.17;61.20
66430;BME280;53242;51.694;10.006;2023-09-19T09:53:40;99139.22;;;18.53;61.82
66430;BME280;53242;51.694;10.006;2023-09-19T09:56:07;99138.03;;;18.38;61.65
66430;BME280;53242;51.694;10.006;2023-09-19T09:58:51;99146.56;;;18.35;60.72
66430;BME280;53242;51.694;10.006;2023-09-19T10:01:18;99141.41;;;18.29;61.53
66430;BME280;53242;51.694;10.006;2023-09-19T10:03:41;99142.16;;;18.19;61.41
66430;BME280;53242;51.694;10.006;2023-09-19T10:06:11;99153.59;;;18.47;60.26
66430;BME280;53242;51.694;10.006;2023-09-19T10:09:07;99151.41;;;18.38;60.57
66430;BME280;53242;51.694;10.006;2023-09-19T10:11:33;99146.31;;;18.37;60.47
66430;BME280;53242;51.694;10.006;2023-09-19T10:14:00;99144.03;;;18.51;60.09
66430;BME280;53242;51.694;10.006;2023-09-19T10:16:24;99148.25;;;18.47;60.14
66430;BME280;53242;51.694;10.006;2023-09-19T10:18:50;99141.50;;;18.39;60.47
66430;BME280;53242;51.694;10.006;2023-09-19T10:21:16;99146.75;;;18.29;60.89
66430;BME280;53242;51.694;10.006;2023-09-19T10:23:45;99150.78;;;18.31;60.35
66430;BME280;53242;51.694;10.006;2023-09-19T10:26:08;99155.13;;;18.37;60.16
66430;BME280;53242;51.694;10.006;2023-09-19T10:28:32;99153.94;;;18.23;60.83
66430;BME280;53242;51.694;10.006;2023-09-19T10:30:54;99160.34;;;18.54;60.31
66430;BME280;53242;51.694;10.006;2023-09-19T10:33:19;99166.25;;;18.56;59.44
66430;BME280;53242;51.694;10.006;2023-09-19T10:35:46;99150.63;;;18.43;58.83
66430;BME280;53242;51.694;10.006;2023-09-19T10:38:12;99148.22;;;18.41;56.84
66430;BME280;53242;51.694;10.006;2023-09-19T10:40:36;99142.41;;;18.50;57.89
66430;BME280;53242;51.694;10.006;2023-09-19T10:43:04;99137.53;;;18.74;57.91
66430;BME280;53242;51.694;10.006;2023-09-19T10:45:34;99140.97;;;18.74;56.69
66430;BME280;53242;51.694;10.006;2023-09-19T10:47:57;99143.09;;;19.05;56.91
66430;BME280;53242;51.694;10.006;2023-09-19T10:50:21;99131.69;;;18.82;56.63
66430;BME280;53242;51.694;10.006;2023-09-19T10:52:46;99143.63;;;19.12;56.75
66430;BME280;53242;51.694;10.006;2023-09-19T10:55:10;99140.56;;;19.36;56.80
66430;BME280;53242;51.694;10.006;2023-09-19T10:57:44;99147.19;;;19.23;56.80
66430;BME280;53242;51.694;10.006;2023-09-19T11:00:07;99137.53;;;19.17;56.24
66430;BME280;53242;51.694;10.006;2023-09-19T11:05:32;99136.72;;;19.21;56.15
66430;BME280;53242;51.694;10.006;2023-09-19T11:07:59;99142.63;;;19.23;55.59
66430;BME280;53242;51.694;10.006;2023-09-19T11:10:48;99136.50;;;19.23;54.82
66430;BME280;53242;51.694;10.006;2023-09-19T11:13:28;99128.50;;;19.28;54.94
66430;BME280;53242;51.694;10.006;2023-09-19T11:26:44;99130.00;;;19.14;53.47
66430;BME280;53242;51.694;10.006;2023-09-19T11:29:27;99126.38;;;19.35;53.92
66430;BME280;53242;51.694;10.006;2023-09-19T11:31:51;99130.72;;;19.52;54.21
66430;BME280;53242;51.694;10.006;2023-09-19T11:34:43;99135.72;;;19.33;52.86
66430;BME280;53242;51.694;10.006;2023-09-19T11:39:35;99124.56;;;19.51;54.18
66430;BME280;53242;51.694;10.006;2023-09-19T11:42:00;99119.22;;;19.51;54.27
66430;BME280;53242;51.694;10.006;2023-09-19T11:49:15;99130.72;;;19.52;52.94
66430;BME280;53242;51.694;10.006;2023-09-19T11:51:43;99139.22;;;19.38;53.03
66430;BME280;53242;51.694;10.006;2023-09-19T11:54:11;99128.06;;;19.62;52.43
66430;BME280;53242;51.694;10.006;2023-09-19T11:56:54;99130.66;;;19.42;51.37
66430;BME280;53242;51.694;10.006;2023-09-19T11:59:25;99128.03;;;19.52;51.05
66430;BME280;53242;51.694;10.006;2023-09-19T12:01:52;99124.81;;;19.50;51.69
66430;BME280;53242;51.694;10.006;2023-09-19T12:04:33;99129.47;;;19.80;51.07
66430;BME280;53242;51.694;10.006;2023-09-19T12:06:56;99127.56;;;19.81;50.70
66430;BME280;53242;51.694;10.006;2023-09-19T12:09:19;99124.88;;;19.70;50.99
66430;BME280;53242;51.694;10.006;2023-09-19T12:11:42;99126.47;;;19.71;50.19
66430;BME280;53242;51.694;10.006;2023-09-19T12:14:08;99127.66;;;20.07;49.83
66430;BME280;53242;51.694;10.006;2023-09-19T12:16:30;99128.97;;;19.88;49.64
66430;BME280;53242;51.694;10.006;2023-09-19T12:18:53;99133.25;;;19.90;49.84
66430;BME280;53242;51.694;10.006;2023-09-19T12:21:29;99118.81;;;20.42;49.60
66430;BME280;53242;51.694;10.006;2023-09-19T12:24:19;99133.03;;;20.37;48.88
66430;BME280;53242;51.694;10.006;2023-09-19T12:26:43;99123.91;;;20.08;49.48
66430;BME280;53242;51.694;10.006;2023-09-19T12:29:18;99129.25;;;19.97;49.38
66430;BME280;53242;51.694;10.006;2023-09-19T12:31:51;99124.44;;;20.04;48.41
66430;BME280;53242;51.694;10.006;2023-09-19T12:34:16;99126.59;;;20.23;47.95
66430;BME280;53242;51.694;10.006;2023-09-19T12:36:39;99125.41;;;19.72;48.12
66430;BME280;53242;51.694;10.006;2023-09-19T12:39:02;99126.31;;;20.09;48.22
66430;BME280;53242;51.694;10.006;2023-09-19T12:41:31;99118.03;;;20.16;47.57
66430;BME280;53242;51.694;10.006;2023-09-19T12:43:53;99116.69;;;20.24;47.24
66430;BME280;53242;51.694;10.006;2023-09-19T12:46:20;99118.81;;;20.16;47.86
66430;BME280;53242;51.694;10.006;2023-09-19T12:48:43;99124.44;;;20.04;47.74
66430;BME280;53242;51.694;10.006;2023-09-19T12:51:08;99123.38;;;20.21;48.44
66430;BME280;53242;51.694;10.006;2023-09-19T12:53:43;99124.97;;;20.58;47.33
66430;BME280;53242;51.694;10.006;2023-09-19T12:56:06;99119.38;;;20.29;48.53
66430;BME280;53242;51.694;10.006;2023-09-19T12:58:30;99105.97;;;20.39;47.89
66430;BME280;53242;51.694;10.006;2023-09-19T13:00:53;99118.03;;;20.62;47.94
66430;BME280;53242;51.694;10.006;2023-09-19T13:05:59;99111.84;;;20.10;47.88
66430;BME280;53242;51.694;10.006;2023-09-19T13:08:37;99111.06;;;20.41;47.31
66430;BME280;53242;51.694;10.006;2023-09-19T13:11:13;99106.78;;;20.29;47.33
66430;BME280;53242;51.694;10.006;2023-09-19T13:13:37;99102.19;;;20.45;47.55
66430;BME280;53242;51.694;10.006;2023-09-19T13:16:01;99104.63;;;20.57;47.57
66430;BME280;53242;51.694;10.006;2023-09-19T13:18:24;99096.81;;;20.66;47.66